createdAt,value
2018-06-24T00:02:02.808Z,72.41
2018-06-24T00:04:07.671Z,72.45
2018-06-24T00:06:12.553Z,72.68
2018-06-24T00:08:17.304Z,72.27
2018-06-24T00:10:22.051Z,72.12
2018-06-24T00:12:26.907Z,71.71
2018-06-24T00:14:31.660Z,71.40
2018-06-24T00:16:36.571Z,71.17
2018-06-24T00:18:41.365Z,71.16
2018-06-24T00:20:46.161Z,70.58
2018-06-24T00:22:50.927Z,70.69
2018-06-24T00:24:55.794Z,71.38
2018-06-24T00:27:00.578Z,71.54
2018-06-24T00:29:05.325Z,71.20
2018-06-24T00:31:10.185Z,71.20
2018-06-24T00:33:14.961Z,72.23
2018-06-24T00:35:19.764Z,71.93
2018-06-24T00:37:24.659Z,72.05
2018-06-24T00:39:29.527Z,71.79
2018-06-24T00:41:34.259Z,72.51
2018-06-24T00:43:39.039Z,72.52
2018-06-24T00:45:43.516Z,72.83
2018-06-24T00:47:48.399Z,72.46
2018-06-24T00:49:53.171Z,72.26
2018-06-24T00:51:57.872Z,72.84
2018-06-24T00:54:02.656Z,73.29
2018-06-24T00:56:07.331Z,73.70
2018-06-24T00:58:12.058Z,73.63
2018-06-24T01:00:17.848Z,73.95
2018-06-24T01:02:22.789Z,73.66
2018-06-24T01:04:27.484Z,74.15
2018-06-24T01:06:32.192Z,73.75
2018-06-24T01:08:36.945Z,74.37
2018-06-24T01:10:41.748Z,74.48
2018-06-24T01:12:46.538Z,74.87
2018-06-24T01:14:51.374Z,74.79
2018-06-24T01:16:56.247Z,74.68
2018-06-24T01:19:00.983Z,74.03
2018-06-24T01:21:05.515Z,73.13
2018-06-24T01:23:10.319Z,73.35
2018-06-24T01:25:15.047Z,73.31
2018-06-24T01:27:19.935Z,72.44
2018-06-24T01:29:24.640Z,73.55
2018-06-24T01:31:29.413Z,73.02
2018-06-24T01:33:34.188Z,73.29
2018-06-24T01:35:38.937Z,73.65
2018-06-24T01:37:43.660Z,73.55
2018-06-24T01:39:48.479Z,73.54
2018-06-24T01:41:53.174Z,73.29
2018-06-24T01:43:57.904Z,72.94
2018-06-24T01:46:02.688Z,73.54
2018-06-24T01:48:07.395Z,73.40
2018-06-24T01:50:12.125Z,73.42
2018-06-24T01:52:16.816Z,73.56
2018-06-24T01:54:21.582Z,73.56
2018-06-24T01:56:26.286Z,73.88
2018-06-24T01:58:31.066Z,72.62
2018-06-24T02:00:35.899Z,73.16
2018-06-24T02:02:40.584Z,73.30
2018-06-24T02:04:45.295Z,74.03
2018-06-24T02:06:49.940Z,74.96
2018-06-24T02:08:54.641Z,75.08
2018-06-24T02:10:59.366Z,74.89
2018-06-24T02:13:04.191Z,74.81
2018-06-24T02:15:08.943Z,75.44
2018-06-24T02:17:13.649Z,75.19
2018-06-24T02:19:18.399Z,75.64
2018-06-24T02:21:23.138Z,76.43
2018-06-24T02:23:27.913Z,76.04
2018-06-24T02:25:32.539Z,76.19
2018-06-24T02:27:37.472Z,77.42
2018-06-24T02:29:42.277Z,78.38
2018-06-24T02:31:46.917Z,78.85
2018-06-24T02:33:51.573Z,78.59
2018-06-24T02:35:56.323Z,78.84
2018-06-24T02:38:01.161Z,79.36
2018-06-24T02:40:05.899Z,79.36
2018-06-24T02:42:10.764Z,78.33
2018-06-24T02:44:15.381Z,78.96
2018-06-24T02:46:20.209Z,79.14
2018-06-24T02:48:24.981Z,78.50
2018-06-24T02:50:29.759Z,79.02
2018-06-24T02:52:34.755Z,78.84
2018-06-24T02:54:39.389Z,79.20
2018-06-24T02:56:44.088Z,79.39
2018-06-24T02:58:48.762Z,78.83
2018-06-24T03:00:53.557Z,79.18
2018-06-24T03:02:58.295Z,79.13
2018-06-24T03:05:03.007Z,79.26
2018-06-24T03:07:07.774Z,79.42
2018-06-24T03:09:12.834Z,78.12
2018-06-24T03:11:17.517Z,77.82
2018-06-24T03:13:22.403Z,77.92
2018-06-24T03:15:27.002Z,78.67
2018-06-24T03:17:32.071Z,79.34
2018-06-24T03:19:36.749Z,80.14
2018-06-24T03:21:41.482Z,80.14
2018-06-24T03:23:46.189Z,81.02
2018-06-24T03:25:50.931Z,79.74
2018-06-24T03:27:55.671Z,80.13
2018-06-24T03:30:00.387Z,80.58
2018-06-24T03:32:05.121Z,80.34
2018-06-24T03:34:09.783Z,81.18
2018-06-24T03:36:14.448Z,81.83
2018-06-24T03:38:19.109Z,81.56
2018-06-24T03:40:23.818Z,81.53
2018-06-24T03:42:28.467Z,81.94
2018-06-24T03:44:33.208Z,82.13
2018-06-24T03:46:38.048Z,82.26
2018-06-24T03:48:42.719Z,82.36
2018-06-24T03:50:47.442Z,82.13
2018-06-24T03:52:52.095Z,82.04
2018-06-24T03:54:56.821Z,80.94
2018-06-24T03:57:01.678Z,81.48
2018-06-24T03:59:06.505Z,80.57
2018-06-24T04:01:11.281Z,80.64
2018-06-24T04:03:15.904Z,80.58
2018-06-24T04:05:20.527Z,81.25
2018-06-24T04:07:25.200Z,80.95
2018-06-24T04:09:29.871Z,80.71
2018-06-24T04:11:34.585Z,80.41
2018-06-24T04:13:39.289Z,79.87
2018-06-24T04:15:43.950Z,78.86
2018-06-24T04:17:48.698Z,79.45
2018-06-24T04:19:53.286Z,79.72
2018-06-24T04:21:57.942Z,79.45
2018-06-24T04:24:02.529Z,79.44
2018-06-24T04:26:08.318Z,79.25
2018-06-24T04:28:13.074Z,80.00
2018-06-24T04:30:17.759Z,79.48
2018-06-24T04:32:22.358Z,79.43
2018-06-24T04:34:27.000Z,79.30
2018-06-24T04:36:31.666Z,79.82
2018-06-24T04:38:36.424Z,78.99
2018-06-24T04:40:41.124Z,78.83
2018-06-24T04:42:45.848Z,78.48
2018-06-24T04:44:50.489Z,78.59
2018-06-24T04:46:55.403Z,78.27
2018-06-24T04:49:00.218Z,78.84
2018-06-24T04:51:05.230Z,78.56
2018-06-24T04:53:09.990Z,78.01
2018-06-24T04:55:14.607Z,77.91
2018-06-24T04:57:19.221Z,77.67
2018-06-24T04:59:24.053Z,78.15
2018-06-24T05:01:28.681Z,77.38
2018-06-24T05:03:33.272Z,77.46
2018-06-24T05:05:38.084Z,75.89
2018-06-24T05:07:42.751Z,76.06
2018-06-24T05:09:47.380Z,75.21
2018-06-24T05:11:52.085Z,76.04
2018-06-24T05:13:56.811Z,75.74
2018-06-24T05:16:01.434Z,76.26
2018-06-24T05:18:06.779Z,77.24
2018-06-24T05:20:11.404Z,77.21
2018-06-24T05:22:16.117Z,77.30
2018-06-24T05:24:20.806Z,77.39
2018-06-24T05:26:25.833Z,77.38
2018-06-24T05:28:30.522Z,77.23
2018-06-24T05:30:35.185Z,76.13
2018-06-24T05:32:40.123Z,76.39
2018-06-24T05:34:44.926Z,75.56
2018-06-24T05:36:49.860Z,76.05
2018-06-24T05:38:54.547Z,75.43
2018-06-24T05:40:59.178Z,75.28
2018-06-24T05:43:03.827Z,75.47
2018-06-24T05:45:08.659Z,75.68
2018-06-24T05:47:13.543Z,75.49
2018-06-24T05:49:18.296Z,74.34
2018-06-24T05:51:23.240Z,74.80
2018-06-24T05:53:28.479Z,75.89
2018-06-24T05:55:33.533Z,74.94
2018-06-24T05:57:38.489Z,73.86
2018-06-24T05:59:43.324Z,73.51
2018-06-24T06:01:48.122Z,73.45
2018-06-24T06:03:53.770Z,73.38
2018-06-24T06:05:58.596Z,72.98
2018-06-24T06:08:03.339Z,72.57
2018-06-24T06:10:08.360Z,71.62
2018-06-24T06:12:13.282Z,71.97
2018-06-24T06:14:18.286Z,72.15
2018-06-24T06:16:23.033Z,70.73
2018-06-24T06:18:27.729Z,71.32
2018-06-24T06:20:32.445Z,70.18
2018-06-24T06:22:37.224Z,69.71
2018-06-24T06:24:41.928Z,69.49
2018-06-24T06:26:46.615Z,69.19
2018-06-24T06:28:51.285Z,68.57
2018-06-24T06:30:56.291Z,67.23
2018-06-24T06:33:01.010Z,66.41
2018-06-24T06:35:06.395Z,65.53
2018-06-24T06:37:11.399Z,66.14
2018-06-24T06:39:16.146Z,65.55
2018-06-24T06:41:21.059Z,66.44
2018-06-24T06:43:25.810Z,66.16
2018-06-24T06:45:30.815Z,66.75
2018-06-24T06:47:35.662Z,65.52
2018-06-24T06:49:40.963Z,65.27
2018-06-24T06:51:45.860Z,65.37
2018-06-24T06:53:50.655Z,65.50
2018-06-24T06:55:55.451Z,65.09
2018-06-24T06:58:00.244Z,65.63
2018-06-24T07:00:05.978Z,65.53
2018-06-24T07:02:11.115Z,65.46
2018-06-24T07:04:15.933Z,65.17
2018-06-24T07:06:22.768Z,65.10
2018-06-24T07:08:27.486Z,65.44
2018-06-24T07:10:32.227Z,65.06
2018-06-24T07:12:37.066Z,65.14
2018-06-24T07:14:41.894Z,65.33
2018-06-24T07:16:46.669Z,66.87
2018-06-24T07:18:51.427Z,67.33
2018-06-24T07:20:56.554Z,65.76
2018-06-24T07:23:01.455Z,66.27
2018-06-24T07:25:06.416Z,66.36
2018-06-24T07:27:11.238Z,66.11
2018-06-24T07:29:15.995Z,66.67
2018-06-24T07:31:20.803Z,66.18
2018-06-24T07:33:25.587Z,66.32
2018-06-24T07:35:30.428Z,67.01
2018-06-24T07:37:35.207Z,66.45
2018-06-24T07:39:39.940Z,65.91
2018-06-24T07:41:44.778Z,65.02
2018-06-24T07:43:49.560Z,65.64
2018-06-24T07:45:54.487Z,65.61
2018-06-24T07:47:59.365Z,63.90
2018-06-24T07:50:04.435Z,64.99
2018-06-24T07:52:09.315Z,65.64
2018-06-24T07:54:14.266Z,65.11
2018-06-24T07:56:19.102Z,65.78
2018-06-24T08:00:32.943Z,65.90
2018-06-24T08:02:37.710Z,65.68
2018-06-24T08:04:42.700Z,64.89
2018-06-24T08:06:47.436Z,64.52
2018-06-24T08:08:52.818Z,62.39
2018-06-24T08:10:57.756Z,64.05
2018-06-24T08:13:02.732Z,63.63
2018-06-24T08:15:07.567Z,63.12
2018-06-24T08:17:12.474Z,63.36
2018-06-24T08:19:17.375Z,62.33
2018-06-24T08:21:22.200Z,62.87
2018-06-24T08:23:26.903Z,60.30
2018-06-24T08:25:31.765Z,60.54
2018-06-24T08:27:36.580Z,59.67
2018-06-24T08:29:41.338Z,59.60
2018-06-24T08:31:46.157Z,60.70
2018-06-24T08:33:50.973Z,59.15
2018-06-24T08:35:56.049Z,60.48
2018-06-24T08:38:00.914Z,59.99
2018-06-24T08:40:05.808Z,58.95
2018-06-24T08:42:10.887Z,56.96
2018-06-24T08:44:15.608Z,58.89
2018-06-24T08:46:20.376Z,59.07
2018-06-24T08:48:26.007Z,58.70
2018-06-24T08:50:30.855Z,59.94
2018-06-24T08:52:35.992Z,60.53
2018-06-24T08:54:40.720Z,59.90
2018-06-24T08:56:45.628Z,60.38
2018-06-24T08:58:50.444Z,59.98
2018-06-24T09:00:55.559Z,59.09
2018-06-24T09:03:00.885Z,58.86
2018-06-24T09:05:05.663Z,58.94
2018-06-24T09:07:10.452Z,57.81
2018-06-24T09:09:15.157Z,59.21
2018-06-24T09:11:20.014Z,59.52
2018-06-24T09:13:24.802Z,57.64
2018-06-24T09:15:29.697Z,58.14
2018-06-24T09:17:34.495Z,58.23
2018-06-24T09:19:39.250Z,58.56
2018-06-24T09:21:44.074Z,60.25
2018-06-24T09:23:48.842Z,58.70
2018-06-24T09:25:53.641Z,57.68
2018-06-24T09:27:58.369Z,58.34
2018-06-24T09:30:03.147Z,57.08
2018-06-24T09:32:07.888Z,57.78
2018-06-24T09:34:15.266Z,57.32
2018-06-24T09:36:22.013Z,58.98
2018-06-24T09:38:26.843Z,60.12
2018-06-24T09:40:31.840Z,60.44
2018-06-24T09:42:36.600Z,58.32
2018-06-24T09:44:41.366Z,58.06
2018-06-24T09:46:46.166Z,58.58
2018-06-24T09:48:50.992Z,58.18
2018-06-24T09:50:55.722Z,59.06
2018-06-24T09:53:00.453Z,58.43
2018-06-24T09:55:05.362Z,57.19
2018-06-24T09:57:10.192Z,57.92
2018-06-24T09:59:15.272Z,57.24
2018-06-24T10:01:20.220Z,58.34
2018-06-24T10:03:25.219Z,57.41
2018-06-24T10:05:30.004Z,57.32
2018-06-24T10:07:34.963Z,58.48
2018-06-24T10:09:39.844Z,54.98
2018-06-24T10:11:44.649Z,56.68
2018-06-24T10:13:49.501Z,55.98
2018-06-24T10:15:54.781Z,54.48
2018-06-24T10:17:59.618Z,54.60
2018-06-24T10:20:04.771Z,55.61
2018-06-24T10:22:09.496Z,53.62
2018-06-24T10:24:14.295Z,52.80
2018-06-24T10:26:22.242Z,52.60
2018-06-24T10:28:28.496Z,53.15
2018-06-24T10:30:33.476Z,51.59
2018-06-24T10:32:38.307Z,51.00
2018-06-24T10:34:43.102Z,49.54
2018-06-24T10:36:47.948Z,48.82
2018-06-24T10:38:52.830Z,47.79
2018-06-24T10:40:57.623Z,45.36
2018-06-24T10:43:02.613Z,45.82
2018-06-24T10:45:07.511Z,47.49
2018-06-24T10:47:12.433Z,49.48
2018-06-24T10:49:17.467Z,49.03
2018-06-24T10:51:22.295Z,49.27
2018-06-24T10:53:27.080Z,48.28
2018-06-24T10:55:32.228Z,46.64
2018-06-24T10:57:37.203Z,46.59
2018-06-24T10:59:42.063Z,46.56
2018-06-24T11:03:45.159Z,46.69
2018-06-24T11:05:49.936Z,47.00
2018-06-24T11:07:55.008Z,45.28
2018-06-24T11:09:59.863Z,45.91
2018-06-24T11:12:04.642Z,44.51
2018-06-24T11:14:09.533Z,44.10
2018-06-24T11:16:14.454Z,45.62
2018-06-24T11:18:19.290Z,45.83
2018-06-24T11:20:24.080Z,45.21
2018-06-24T11:22:28.906Z,44.96
2018-06-24T11:24:33.800Z,43.50
2018-06-24T11:26:39.010Z,43.13
2018-06-24T11:28:43.857Z,44.20
2018-06-24T11:30:48.924Z,45.25
2018-06-24T11:32:54.029Z,44.76
2018-06-24T11:34:58.921Z,45.13
2018-06-24T11:37:03.909Z,43.54
2018-06-24T11:39:10.612Z,44.50
2018-06-24T11:41:15.489Z,44.70
2018-06-24T11:43:20.369Z,42.92
2018-06-24T11:45:25.382Z,44.85
2018-06-24T11:47:30.337Z,43.97
2018-06-24T11:49:35.438Z,43.10
2018-06-24T11:51:40.322Z,44.69
2018-06-24T11:53:45.259Z,45.64
2018-06-24T11:55:51.628Z,47.00
2018-06-24T11:57:56.599Z,48.10
2018-06-24T12:00:01.438Z,48.13
2018-06-24T12:02:06.372Z,47.97
2018-06-24T12:04:11.338Z,48.52
2018-06-24T12:06:16.112Z,47.88
2018-06-24T12:08:21.016Z,46.12
2018-06-24T12:10:25.954Z,46.21
2018-06-24T12:12:30.862Z,45.97
2018-06-24T12:14:35.929Z,44.49
2018-06-24T12:16:40.795Z,43.98
2018-06-24T12:18:45.614Z,43.24
2018-06-24T12:20:50.508Z,45.14
2018-06-24T12:22:55.371Z,45.94
2018-06-24T12:25:00.166Z,45.32
2018-06-24T12:27:05.221Z,45.90
2018-06-24T12:29:10.199Z,44.47
2018-06-24T12:31:15.362Z,44.95
2018-06-24T12:33:20.236Z,44.94
2018-06-24T12:35:25.105Z,45.71
2018-06-24T12:37:30.052Z,44.70
2018-06-24T12:39:34.795Z,47.08
2018-06-24T12:41:39.700Z,47.37
2018-06-24T12:43:44.629Z,46.40
2018-06-24T12:45:49.743Z,47.15
2018-06-24T12:47:54.599Z,46.37
2018-06-24T12:52:14.544Z,46.55
2018-06-24T12:54:19.405Z,47.70
2018-06-24T12:56:24.351Z,48.09
2018-06-24T12:58:29.847Z,48.04
2018-06-24T13:00:35.130Z,47.74
2018-06-24T13:02:39.463Z,49.04
2018-06-24T13:04:44.500Z,49.47
2018-06-24T13:06:49.383Z,49.64
2018-06-24T13:08:54.950Z,48.23
2018-06-24T13:11:00.161Z,48.90
2018-06-24T13:13:05.795Z,48.61
2018-06-24T13:15:11.392Z,48.01
2018-06-24T13:17:18.309Z,48.80
2018-06-24T13:19:23.415Z,48.49
2018-06-24T13:21:28.308Z,48.90
2018-06-24T13:23:34.473Z,49.14
2018-06-24T13:25:39.532Z,48.88
2018-06-24T13:27:44.345Z,49.65
2018-06-24T13:29:49.367Z,49.05
2018-06-24T13:31:54.484Z,49.66
2018-06-24T13:33:59.750Z,49.94
2018-06-24T13:36:04.949Z,49.57
2018-06-24T13:38:10.612Z,51.10
2018-06-24T13:40:15.948Z,51.16
2018-06-24T13:42:21.105Z,50.87
2018-06-24T13:44:26.161Z,52.36
2018-06-24T13:46:31.175Z,51.61
2018-06-24T13:48:56.003Z,52.15
2018-06-24T13:51:41.152Z,51.90
2018-06-24T13:53:52.868Z,52.53
2018-06-24T13:56:06.144Z,53.58
2018-06-24T13:58:35.017Z,53.36
2018-06-24T14:00:58.009Z,55.28
2018-06-24T14:03:42.425Z,53.51
2018-06-24T14:06:18.276Z,53.36
2018-06-24T14:08:35.165Z,53.56
2018-06-24T14:10:52.185Z,55.02
2018-06-24T14:13:25.641Z,53.95
2018-06-24T14:15:30.560Z,52.96
2018-06-24T14:17:41.709Z,54.12
2018-06-24T14:19:52.525Z,53.47
2018-06-24T14:21:59.799Z,54.11
2018-06-24T14:24:08.487Z,54.31
2018-06-24T14:26:22.561Z,53.97
2018-06-24T14:28:57.973Z,54.42
2018-06-24T14:31:31.506Z,53.65
2018-06-24T14:34:11.185Z,54.58
2018-06-24T14:36:38.563Z,55.33
2018-06-24T14:39:03.742Z,54.55
2018-06-24T14:41:23.158Z,54.96
2018-06-24T14:43:33.500Z,54.54
2018-06-24T14:45:41.026Z,54.20
2018-06-24T14:48:00.694Z,55.02
2018-06-24T14:50:09.646Z,54.75
2018-06-24T14:52:14.768Z,55.86
2018-06-24T14:56:21.497Z,56.79
2018-06-24T14:58:26.341Z,56.71
2018-06-24T15:00:31.263Z,56.01
2018-06-24T15:02:40.392Z,56.80
2018-06-24T15:04:45.219Z,56.64
2018-06-24T15:06:50.104Z,56.30
2018-06-24T15:08:55.216Z,57.27
2018-06-24T15:11:00.869Z,58.27
2018-06-24T15:13:10.339Z,59.39
2018-06-24T15:15:30.627Z,59.12
2018-06-24T15:17:49.221Z,59.30
2018-06-24T15:19:55.751Z,59.91
2018-06-24T15:22:25.076Z,60.17
2018-06-24T15:24:44.982Z,60.44
2018-06-24T15:27:00.408Z,59.59
2018-06-24T15:29:10.012Z,60.32
2018-06-24T15:31:18.609Z,60.08
2018-06-24T15:33:23.629Z,60.20
2018-06-24T15:36:01.208Z,59.30
2018-06-24T15:38:14.221Z,59.20
2018-06-24T15:40:35.128Z,57.77
2018-06-24T15:42:59.956Z,57.24
2018-06-24T15:45:07.452Z,57.05
2018-06-24T15:47:26.546Z,56.63
2018-06-24T15:49:56.060Z,57.52
2018-06-24T15:52:19.730Z,57.76
2018-06-24T15:54:39.779Z,58.60
2018-06-24T15:57:02.287Z,58.46
2018-06-24T15:59:18.132Z,60.12
2018-06-24T16:01:29.010Z,60.32
2018-06-24T16:03:48.572Z,59.86
2018-06-24T16:05:56.116Z,60.65
2018-06-24T16:08:14.012Z,61.02
2018-06-24T16:10:26.110Z,60.66
2018-06-24T16:12:48.655Z,61.62
2018-06-24T16:15:19.925Z,62.03
2018-06-24T16:17:28.332Z,62.82
2018-06-24T16:19:51.130Z,64.56
2018-06-24T16:22:14.508Z,66.22
2018-06-24T16:24:53.601Z,66.25
2018-06-24T16:27:03.451Z,66.97
2018-06-24T16:29:11.347Z,65.85
2018-06-24T16:31:31.401Z,66.05
2018-06-24T16:33:43.322Z,65.04
2018-06-24T16:35:49.573Z,65.71
2018-06-24T16:37:58.703Z,65.44
2018-06-24T16:40:18.989Z,65.86
2018-06-24T16:42:40.988Z,64.91
2018-06-24T16:45:04.728Z,65.79
2018-06-24T16:47:22.759Z,65.43
2018-06-24T16:49:45.856Z,65.56
2018-06-24T16:52:03.669Z,66.59
2018-06-24T16:54:35.746Z,66.07
2018-06-24T16:56:51.476Z,66.22
2018-06-24T16:59:24.942Z,65.66
2018-06-24T17:01:40.025Z,66.29
2018-06-24T17:04:23.805Z,65.65
2018-06-24T17:06:42.377Z,65.29
2018-06-24T17:08:52.550Z,65.85
2018-06-24T17:11:02.557Z,65.67
2018-06-24T17:13:24.734Z,66.37
2018-06-24T17:15:55.000Z,66.31
2018-06-24T17:18:28.584Z,66.21
2018-06-24T17:20:52.181Z,65.55
2018-06-24T17:23:08.270Z,65.85
2018-06-24T17:25:19.071Z,66.49
2018-06-24T17:28:02.707Z,66.35
2018-06-24T17:30:22.677Z,66.61
2018-06-24T17:32:36.599Z,66.59
2018-06-24T17:35:07.746Z,65.93
2018-06-24T17:37:45.029Z,67.19
2018-06-24T17:40:18.234Z,66.67
2018-06-24T17:42:52.433Z,66.64
2018-06-24T17:48:10.313Z,67.33
2018-06-24T17:50:32.091Z,66.01
2018-06-24T17:53:05.063Z,66.57
2018-06-24T17:55:34.884Z,66.94
2018-06-24T17:58:09.536Z,66.22
2018-06-24T18:00:28.862Z,66.65
2018-06-24T18:02:45.649Z,67.08
2018-06-24T18:04:57.918Z,68.64
2018-06-24T18:07:06.348Z,67.85
2018-06-24T18:09:29.636Z,68.77
2018-06-24T18:11:37.828Z,68.78
2018-06-24T18:14:04.640Z,68.08
2018-06-24T18:16:51.333Z,68.61
2018-06-24T18:19:08.913Z,68.63
2018-06-24T18:21:20.477Z,69.66
2018-06-24T18:23:32.420Z,69.81
2018-06-24T18:25:41.988Z,69.69
2018-06-24T18:28:01.246Z,69.86
2018-06-24T18:30:12.748Z,69.15
2018-06-24T18:32:25.878Z,69.76
2018-06-24T18:34:59.461Z,69.55
2018-06-24T18:37:12.585Z,68.90
2018-06-24T18:39:33.727Z,68.89
2018-06-24T18:44:57.177Z,68.22
2018-06-24T18:47:38.450Z,67.61
2018-06-24T18:50:06.022Z,67.83
2018-06-24T18:52:54.854Z,69.10
2018-06-24T19:03:48.312Z,68.30
2018-06-24T19:09:14.987Z,68.93
2018-06-24T19:11:38.217Z,68.40
2018-06-24T19:13:58.621Z,68.18
2018-06-24T19:16:31.611Z,67.82
2018-06-24T19:19:01.745Z,68.25
2018-06-24T19:21:31.297Z,67.86
2018-06-24T19:23:56.904Z,67.45
2018-06-24T19:26:31.669Z,67.63
2018-06-24T19:29:00.195Z,67.71
2018-06-24T19:31:27.406Z,68.69
2018-06-24T19:34:07.378Z,69.13
2018-06-24T19:36:28.707Z,69.49
2018-06-24T19:38:55.920Z,71.31
2018-06-24T19:41:22.539Z,70.72
2018-06-24T19:43:49.447Z,71.08
2018-06-24T19:46:12.833Z,72.11
2018-06-24T19:48:46.403Z,73.03
2018-06-24T19:51:16.721Z,71.54
2018-06-24T19:53:56.031Z,73.11
2018-06-24T19:56:38.427Z,73.30
2018-06-24T19:59:23.665Z,73.24
2018-06-24T20:02:03.093Z,75.06
2018-06-24T20:04:41.872Z,77.37
2018-06-24T20:07:19.048Z,77.59
2018-06-24T20:09:56.227Z,76.42
2018-06-24T20:12:32.607Z,76.85
2018-06-24T20:14:58.348Z,77.30
2018-06-24T20:17:34.017Z,78.10
2018-06-24T20:20:01.751Z,77.64
2018-06-24T20:22:25.742Z,78.96
2018-06-24T20:24:40.780Z,79.88
2018-06-24T20:26:57.500Z,81.77
2018-06-24T20:29:20.070Z,81.58
2018-06-24T20:31:38.616Z,81.48
2018-06-24T20:34:03.108Z,81.48
2018-06-24T20:36:24.122Z,82.12
2018-06-24T20:39:05.557Z,81.69
2018-06-24T20:41:15.649Z,81.46
2018-06-24T20:43:45.132Z,81.58
2018-06-24T20:46:00.770Z,82.59
2018-06-24T20:48:23.126Z,82.24
2018-06-24T20:50:37.559Z,82.15
2018-06-24T20:52:58.667Z,80.14
2018-06-24T20:55:19.451Z,80.84
2018-06-24T20:57:35.952Z,80.60
2018-06-24T21:00:00.114Z,80.96
2018-06-24T21:02:22.870Z,79.77
2018-06-24T21:07:34.245Z,80.02
2018-06-24T21:10:03.918Z,80.32
2018-06-24T21:12:23.648Z,80.70
2018-06-24T21:14:55.995Z,81.86
2018-06-24T21:17:23.272Z,81.04
2018-06-24T21:19:28.457Z,80.35
2018-06-24T21:21:33.700Z,78.98
2018-06-24T21:23:38.926Z,79.82
2018-06-24T21:25:44.125Z,80.77
2018-06-24T21:27:49.273Z,80.96
2018-06-24T21:29:57.197Z,81.18
2018-06-24T21:32:04.178Z,80.34
2018-06-24T21:34:11.722Z,80.51
2018-06-24T21:36:17.977Z,80.26
2018-06-24T21:38:24.149Z,79.83
2018-06-24T21:40:30.000Z,79.67
2018-06-24T21:42:35.334Z,78.85
2018-06-24T21:44:42.031Z,80.19
2018-06-24T21:46:48.711Z,80.29
2018-06-24T21:48:53.640Z,80.82
2018-06-24T21:51:00.430Z,79.72
2018-06-24T21:53:07.044Z,81.93
2018-06-24T21:55:14.600Z,80.76
2018-06-24T21:57:21.682Z,80.94
2018-06-24T21:59:28.513Z,81.41
2018-06-24T22:01:35.932Z,80.93
2018-06-24T22:03:42.521Z,81.80
2018-06-24T22:05:49.604Z,80.41
2018-06-24T22:07:56.705Z,81.73
2018-06-24T22:10:03.711Z,81.77
2018-06-24T22:12:10.432Z,82.29
2018-06-24T22:14:17.642Z,83.91
2018-06-24T22:16:24.756Z,84.14
2018-06-24T22:18:32.240Z,86.38
2018-06-24T22:20:39.382Z,87.96
2018-06-24T22:22:46.220Z,89.11
2018-06-24T22:24:53.240Z,88.75
2018-06-24T22:27:00.512Z,87.76
2018-06-24T22:29:07.752Z,87.31
2018-06-24T22:31:14.702Z,88.15
2018-06-24T22:33:22.034Z,87.62
2018-06-24T22:35:29.024Z,88.33
2018-06-24T22:37:36.189Z,87.89
2018-06-24T22:39:43.010Z,88.53
2018-06-24T22:41:49.855Z,87.67
2018-06-24T22:43:56.999Z,88.11
2018-06-24T22:46:04.164Z,87.97
2018-06-24T22:48:10.987Z,88.74
2018-06-24T22:50:18.137Z,87.30
2018-06-24T22:52:25.541Z,87.88
2018-06-24T22:54:32.946Z,86.96
2018-06-24T22:59:08.374Z,86.84
2018-06-24T23:01:15.588Z,88.28
2018-06-24T23:03:22.702Z,87.61
2018-06-24T23:05:30.025Z,86.74
2018-06-24T23:07:37.163Z,86.12
2018-06-24T23:09:42.515Z,85.40
2018-06-24T23:11:49.158Z,85.28
2018-06-24T23:13:56.128Z,85.52
2018-06-24T23:16:03.337Z,85.82
2018-06-24T23:18:09.900Z,86.19
2018-06-24T23:20:16.601Z,86.71
2018-06-24T23:22:23.632Z,84.94
2018-06-24T23:24:30.189Z,85.01
2018-06-24T23:26:37.461Z,84.92
2018-06-24T23:28:42.676Z,86.46
2018-06-24T23:30:47.831Z,85.12
2018-06-24T23:32:54.613Z,85.97
2018-06-24T23:35:01.695Z,86.04
2018-06-24T23:37:06.571Z,85.91
2018-06-24T23:39:11.450Z,86.67
2018-06-24T23:41:16.372Z,86.86
2018-06-24T23:43:21.349Z,85.27
2018-06-24T23:45:26.286Z,85.20
2018-06-24T23:47:31.229Z,85.39
2018-06-24T23:49:36.021Z,85.34
2018-06-24T23:51:40.919Z,85.50
2018-06-24T23:53:45.806Z,85.16
2018-06-24T23:55:50.704Z,84.40
2018-06-24T23:57:55.556Z,84.84
